Time;durP1;ratioP1;P1;durP2;ratioP2;P2;SDS_P1;SDS_P2;PMS_P1;PMS_P2;Temp;Humidity;BMP_temperature;BMP_pressure;BME280_temperature;BME280_humidity;BME280_pressure;Samples;Min_cycle;Max_cycle;Signal;HPM_P1;HPM_P2
2024/03/03 00:01:44;;;;;;;26.53;13.70;;;10.00;99.90;;;;;;5041797;28;20832;-77
2024/03/03 00:04:30;;;;;;;22.70;13.70;;;10.00;99.90;;;;;;5042064;28;20483;-73
2024/03/03 00:07:16;;;;;;;16.77;12.07;;;9.90;99.90;;;;;;5046182;28;20480;-75
2024/03/03 00:10:02;;;;;;;19.53;13.07;;;9.90;99.90;;;;;;5043441;28;20463;-76
2024/03/03 00:12:47;;;;;;;19.67;12.13;;;9.80;99.90;;;;;;5043178;28;20834;-76
2024/03/03 00:15:33;;;;;;;23.83;13.70;;;9.80;99.90;;;;;;5046143;28;20469;-77
2024/03/03 00:18:20;;;;;;;22.40;13.83;;;9.70;99.90;;;;;;5046128;28;20477;-77
2024/03/03 00:21:06;;;;;;;25.90;12.30;;;9.70;99.90;;;;;;5039331;28;20468;-74
2024/03/03 00:23:52;;;;;;;23.23;13.67;;;9.60;99.90;;;;;;5044747;28;20579;-77
2024/03/03 00:26:37;;;;;;;28.17;13.70;;;9.60;99.90;;;;;;5044220;28;20467;-76
2024/03/03 00:29:23;;;;;;;33.53;14.63;;;9.50;99.90;;;;;;5042083;28;20471;-75
2024/03/03 00:32:10;;;;;;;24.23;13.60;;;9.50;99.90;;;;;;5039332;28;20432;-77
2024/03/03 00:34:58;;;;;;;20.07;13.00;;;9.40;99.90;;;;;;5039915;28;20481;-76
2024/03/03 00:37:43;;;;;;;18.40;11.83;;;9.40;99.90;;;;;;5045647;28;20473;-76
2024/03/03 00:40:32;;;;;;;24.90;12.53;;;9.30;99.90;;;;;;5043083;28;20495;-76
2024/03/03 00:43:18;;;;;;;22.43;13.33;;;9.20;99.90;;;;;;5045948;28;20981;-73
2024/03/03 00:46:05;;;;;;;30.83;14.77;;;9.20;99.90;;;;;;5039077;28;20458;-76
2024/03/03 00:48:50;;;;;;;29.03;16.87;;;9.20;99.90;;;;;;5044420;28;21161;-77
2024/03/03 00:51:39;;;;;;;25.57;15.57;;;9.10;99.90;;;;;;5045852;28;20429;-76
2024/03/03 00:54:25;;;;;;;22.30;13.90;;;9.20;99.90;;;;;;5046487;28;21020;-77
2024/03/03 00:57:11;;;;;;;21.20;14.07;;;9.20;99.90;;;;;;5046864;28;20449;-75
2024/03/03 00:59:56;;;;;;;27.20;15.43;;;9.10;99.90;;;;;;5044949;28;20470;-75
2024/03/03 01:02:42;;;;;;;22.00;14.03;;;9.10;99.90;;;;;;5043615;28;21483;-77
2024/03/03 01:05:28;;;;;;;23.93;15.70;;;9.10;99.90;;;;;;5042375;28;20477;-76
2024/03/03 01:08:15;;;;;;;25.40;15.70;;;9.00;99.90;;;;;;5045384;28;21031;-76
2024/03/03 01:11:01;;;;;;;28.70;18.00;;;9.10;99.90;;;;;;5038788;28;20979;-75
2024/03/03 01:13:47;;;;;;;34.33;18.50;;;9.20;99.90;;;;;;5040885;28;20472;-76
2024/03/03 01:16:32;;;;;;;25.33;16.30;;;9.40;99.90;;;;;;5041162;28;20421;-75
2024/03/03 01:19:18;;;;;;;34.03;17.10;;;9.40;99.90;;;;;;5045002;28;20468;-76
2024/03/03 01:22:04;;;;;;;26.80;16.40;;;9.50;99.90;;;;;;5042246;28;20548;-76
2024/03/03 01:24:51;;;;;;;25.63;15.60;;;9.50;99.90;;;;;;5043998;28;20630;-78
2024/03/03 01:27:36;;;;;;;22.00;15.70;;;9.50;99.90;;;;;;5048882;28;20477;-76
2024/03/03 01:30:22;;;;;;;25.57;16.40;;;9.50;99.90;;;;;;5049298;28;20448;-75
2024/03/03 01:33:08;;;;;;;29.60;16.40;;;9.50;99.90;;;;;;5047180;28;20453;-73
2024/03/03 01:35:53;;;;;;;25.60;15.40;;;9.60;99.90;;;;;;5052280;28;20762;-78
2024/03/03 01:38:39;;;;;;;26.30;15.90;;;9.60;99.90;;;;;;5057536;28;20444;-78
2024/03/03 01:41:26;;;;;;;22.20;14.07;;;9.50;99.90;;;;;;5046291;28;20448;-74
2024/03/03 01:44:12;;;;;;;26.23;13.90;;;9.40;99.90;;;;;;5047849;28;20464;-79
2024/03/03 01:46:58;;;;;;;24.70;13.83;;;9.30;99.90;;;;;;5044082;28;20428;-74
2024/03/03 01:49:47;;;;;;;26.63;13.70;;;9.20;99.90;;;;;;5053784;28;20473;-74
2024/03/03 01:52:33;;;;;;;21.27;14.13;;;9.00;99.90;;;;;;5057988;28;20454;-76
2024/03/03 01:55:22;;;;;;;28.50;15.77;;;9.00;99.90;;;;;;5049231;28;20592;-77
2024/03/03 01:58:11;;;;;;;21.80;14.93;;;8.90;99.90;;;;;;5052658;28;20519;-78
2024/03/03 02:00:58;;;;;;;23.33;15.50;;;8.90;99.90;;;;;;5051127;28;20481;-77
2024/03/03 02:03:44;;;;;;;20.73;14.13;;;8.90;99.90;;;;;;5054239;28;20445;-78
2024/03/03 02:06:32;;;;;;;24.87;15.20;;;8.80;99.90;;;;;;5053199;28;20455;-73
2024/03/03 02:09:18;;;;;;;23.73;14.63;;;8.80;99.90;;;;;;5048435;28;20424;-75
2024/03/03 02:12:04;;;;;;;25.43;14.33;;;8.70;99.90;;;;;;5053182;28;20480;-76
2024/03/03 02:14:51;;;;;;;27.47;15.53;;;8.60;99.90;;;;;;5049435;28;20477;-77
2024/03/03 02:17:37;;;;;;;26.57;15.90;;;8.60;99.90;;;;;;5053243;28;20480;-74
2024/03/03 02:20:23;;;;;;;23.60;14.03;;;8.40;99.90;;;;;;5055553;28;20523;-75
2024/03/03 02:23:10;;;;;;;33.20;15.87;;;8.40;99.90;;;;;;5045731;28;20453;-77
2024/03/03 02:25:56;;;;;;;22.80;13.93;;;8.40;99.90;;;;;;5052195;28;20465;-78
2024/03/03 02:28:42;;;;;;;25.03;14.23;;;8.40;99.90;;;;;;5050259;28;20462;-78
2024/03/03 02:31:27;;;;;;;21.57;14.97;;;8.20;99.90;;;;;;5045657;28;20481;-77
2024/03/03 02:34:13;;;;;;;24.83;16.00;;;8.20;99.90;;;;;;5049414;28;20622;-76
2024/03/03 02:36:59;;;;;;;28.83;16.37;;;8.00;99.90;;;;;;5040585;28;20447;-77
2024/03/03 02:39:46;;;;;;;23.53;15.20;;;8.00;99.90;;;;;;5046269;28;20473;-77
2024/03/03 02:42:32;;;;;;;30.30;15.90;;;8.00;99.90;;;;;;5050841;28;20445;-78
2024/03/03 02:45:18;;;;;;;31.00;17.40;;;8.00;99.90;;;;;;5044550;28;20460;-76
2024/03/03 02:48:03;;;;;;;26.77;16.33;;;7.90;99.90;;;;;;5042625;28;20447;-77
2024/03/03 02:50:49;;;;;;;22.77;14.70;;;7.90;99.90;;;;;;5044209;28;20457;-75
2024/03/03 02:53:35;;;;;;;24.80;15.33;;;7.90;99.90;;;;;;5044111;28;20454;-74
2024/03/03 02:56:22;;;;;;;25.60;16.43;;;7.80;99.90;;;;;;5045087;28;21100;-77
2024/03/03 02:59:07;;;;;;;22.83;13.70;;;7.70;99.90;;;;;;5046428;28;20487;-78
2024/03/03 03:01:53;;;;;;;26.30;15.10;;;7.70;99.90;;;;;;5045389;28;20447;-78
2024/03/03 03:04:39;;;;;;;25.53;15.50;;;7.60;99.90;;;;;;5045766;28;20444;-76
2024/03/03 03:07:25;;;;;;;28.23;16.90;;;7.50;99.90;;;;;;5049978;28;20476;-78
2024/03/03 03:10:10;;;;;;;23.20;14.10;;;7.50;99.90;;;;;;5050939;28;21022;-77
2024/03/03 03:12:57;;;;;;;29.93;15.37;;;7.50;99.90;;;;;;5054054;28;20447;-78
2024/03/03 03:15:43;;;;;;;23.70;14.23;;;7.40;99.90;;;;;;5046621;28;20502;-75
2024/03/03 03:18:28;;;;;;;25.90;15.30;;;7.40;99.90;;;;;;5051369;28;21089;-75
2024/03/03 03:21:14;;;;;;;20.40;14.17;;;7.30;99.90;;;;;;5048024;28;20449;-76
2024/03/03 03:24:01;;;;;;;22.43;15.20;;;7.30;99.90;;;;;;5053231;28;20968;-78
2024/03/03 03:26:46;;;;;;;23.23;14.00;;;7.40;99.90;;;;;;5054183;28;20450;-77
2024/03/03 03:29:34;;;;;;;23.03;14.57;;;7.40;99.90;;;;;;5052827;28;20478;-78
2024/03/03 03:32:19;;;;;;;18.77;13.53;;;7.30;99.90;;;;;;5048765;28;20555;-77
2024/03/03 03:35:06;;;;;;;25.40;14.77;;;7.30;99.90;;;;;;5055096;28;20494;-76
2024/03/03 03:37:51;;;;;;;25.60;14.53;;;7.20;99.90;;;;;;5053205;28;21141;-75
2024/03/03 03:40:38;;;;;;;24.27;14.57;;;7.20;99.90;;;;;;5049318;28;20446;-77
2024/03/03 03:43:24;;;;;;;23.37;13.90;;;7.10;99.90;;;;;;5053307;28;20432;-77
2024/03/03 03:46:11;;;;;;;28.03;15.57;;;7.10;99.90;;;;;;5051278;28;21015;-77
2024/03/03 03:48:56;;;;;;;19.97;14.00;;;7.10;99.90;;;;;;5058439;28;20929;-77
2024/03/03 03:51:42;;;;;;;24.87;14.87;;;7.10;99.90;;;;;;5058096;28;21083;-77
2024/03/03 03:54:28;;;;;;;25.40;14.17;;;7.10;99.90;;;;;;5050715;28;20449;-76
2024/03/03 03:57:13;;;;;;;26.60;14.70;;;7.10;99.90;;;;;;5055190;28;20842;-77
2024/03/03 04:00:00;;;;;;;23.13;16.53;;;7.10;99.90;;;;;;5056702;28;20637;-78
2024/03/03 04:02:47;;;;;;;22.90;14.60;;;7.10;99.90;;;;;;5046711;28;20433;-78
2024/03/03 04:05:33;;;;;;;23.00;15.43;;;7.10;99.90;;;;;;5048533;28;21351;-74
2024/03/03 04:08:18;;;;;;;24.40;15.10;;;7.10;99.90;;;;;;5050631;28;21053;-78
2024/03/03 04:11:04;;;;;;;22.00;14.37;;;7.10;99.90;;;;;;5052666;28;20528;-77
2024/03/03 04:13:51;;;;;;;23.37;15.83;;;7.10;99.90;;;;;;5049487;28;20486;-76
2024/03/03 04:16:36;;;;;;;26.57;13.87;;;7.20;99.90;;;;;;5053951;28;20478;-77
2024/03/03 04:19:23;;;;;;;25.73;14.70;;;7.10;99.90;;;;;;5052628;28;20448;-77
2024/03/03 04:22:09;;;;;;;21.13;14.80;;;7.10;99.90;;;;;;5047785;28;20532;-77
2024/03/03 04:24:54;;;;;;;25.00;15.00;;;7.00;99.90;;;;;;5052120;28;20483;-76
2024/03/03 04:27:41;;;;;;;25.30;15.20;;;7.00;99.90;;;;;;5053083;28;20655;-77
2024/03/03 04:30:26;;;;;;;22.30;15.10;;;7.00;99.90;;;;;;5042735;28;21468;-78
2024/03/03 04:33:13;;;;;;;21.53;14.50;;;7.00;99.90;;;;;;5040496;28;20542;-76
2024/03/03 04:36:00;;;;;;;21.67;14.50;;;7.10;99.90;;;;;;5052188;28;20456;-76
2024/03/03 04:38:46;;;;;;;23.90;14.50;;;7.00;99.90;;;;;;5048784;28;20954;-78
2024/03/03 04:41:32;;;;;;;21.23;14.50;;;7.10;99.90;;;;;;5046623;28;20465;-77
2024/03/03 04:44:18;;;;;;;24.20;13.93;;;7.10;99.90;;;;;;5047632;28;21881;-78
2024/03/03 04:47:09;;;;;;;19.83;14.00;;;7.10;99.90;;;;;;5045752;28;20869;-76
2024/03/03 04:49:55;;;;;;;20.30;13.73;;;7.10;99.90;;;;;;5049291;28;20465;-77
2024/03/03 04:52:42;;;;;;;25.90;15.20;;;7.10;99.90;;;;;;5047317;28;20939;-75
2024/03/03 04:55:27;;;;;;;24.07;14.30;;;7.10;99.90;;;;;;5047384;28;20515;-76
2024/03/03 04:58:13;;;;;;;31.77;14.50;;;7.10;99.90;;;;;;5043390;28;20447;-74
2024/03/03 05:00:59;;;;;;;23.17;14.30;;;7.20;99.90;;;;;;5043835;28;20540;-74
2024/03/03 05:03:45;;;;;;;20.83;13.30;;;7.20;99.90;;;;;;5043721;28;20525;-77
2024/03/03 05:06:30;;;;;;;23.93;14.37;;;7.20;99.90;;;;;;5044573;28;20563;-75
2024/03/03 05:09:18;;;;;;;20.67;14.30;;;7.10;99.90;;;;;;5042996;28;20454;-77
2024/03/03 05:12:03;;;;;;;25.03;14.33;;;7.00;99.90;;;;;;5041129;28;20558;-77
2024/03/03 05:14:49;;;;;;;20.10;13.00;;;7.00;99.90;;;;;;5050827;28;20497;-77
2024/03/03 05:17:34;;;;;;;21.70;13.77;;;7.00;99.90;;;;;;5046381;28;20429;-77
2024/03/03 05:20:20;;;;;;;25.20;15.23;;;7.00;99.90;;;;;;5045976;28;21038;-76
2024/03/03 05:23:06;;;;;;;25.47;15.20;;;7.00;99.90;;;;;;5047561;28;20459;-77
2024/03/03 05:25:53;;;;;;;20.33;14.23;;;6.90;99.90;;;;;;5046920;28;20492;-76
2024/03/03 05:28:39;;;;;;;20.83;13.60;;;6.90;99.90;;;;;;5047261;28;20459;-76
2024/03/03 05:31:25;;;;;;;23.50;15.20;;;6.90;99.90;;;;;;5044500;28;20482;-76
2024/03/03 05:34:12;;;;;;;29.10;16.13;;;7.00;99.90;;;;;;5045922;28;20484;-77
2024/03/03 05:36:58;;;;;;;22.80;14.93;;;6.90;99.90;;;;;;5045455;28;20846;-76
2024/03/03 05:39:43;;;;;;;21.57;13.93;;;6.90;99.90;;;;;;5051295;28;20998;-77
2024/03/03 05:42:30;;;;;;;24.57;14.10;;;7.00;99.90;;;;;;5044464;28;20994;-77
2024/03/03 05:45:16;;;;;;;24.77;15.17;;;6.90;99.90;;;;;;5048417;28;20601;-77
2024/03/03 05:48:02;;;;;;;23.73;15.00;;;6.90;99.90;;;;;;5048760;28;20441;-77
2024/03/03 05:50:48;;;;;;;22.03;13.50;;;6.80;99.90;;;;;;5045269;28;20440;-77
2024/03/03 05:53:33;;;;;;;22.27;14.80;;;6.70;99.90;;;;;;5047539;28;20477;-76
2024/03/03 05:56:19;;;;;;;25.27;15.83;;;6.70;99.90;;;;;;5045661;28;20577;-77
2024/03/03 05:59:06;;;;;;;22.97;16.27;;;6.70;99.90;;;;;;5046938;28;20473;-76
2024/03/03 06:01:53;;;;;;;25.50;15.70;;;6.70;99.90;;;;;;5042704;28;20488;-76
2024/03/03 06:04:39;;;;;;;22.57;15.83;;;6.70;99.90;;;;;;5048955;28;20451;-77
2024/03/03 06:07:25;;;;;;;25.27;14.53;;;6.60;99.90;;;;;;5046995;28;20981;-77
2024/03/03 06:10:11;;;;;;;23.87;14.47;;;6.60;99.90;;;;;;5047311;28;20536;-75
2024/03/03 06:12:57;;;;;;;22.20;14.80;;;6.60;99.90;;;;;;5042672;28;20478;-77
2024/03/03 06:15:44;;;;;;;19.83;13.30;;;6.50;99.90;;;;;;5048998;28;20646;-77
2024/03/03 06:18:30;;;;;;;24.20;14.93;;;6.40;99.90;;;;;;5051556;28;20456;-77
2024/03/03 06:21:15;;;;;;;21.83;14.23;;;6.40;99.90;;;;;;5051464;28;20497;-76
2024/03/03 06:24:01;;;;;;;20.27;13.20;;;6.40;99.90;;;;;;5049918;28;20473;-77
2024/03/03 06:26:47;;;;;;;22.17;15.07;;;6.30;99.90;;;;;;5047364;28;21040;-77
2024/03/03 06:29:35;;;;;;;23.17;13.17;;;6.30;99.90;;;;;;5046037;28;20445;-77
2024/03/03 06:32:22;;;;;;;22.75;14.90;;;6.30;99.90;;;;;;5048920;28;20457;-77
2024/03/03 06:35:10;;;;;;;23.93;16.07;;;6.40;99.90;;;;;;5046964;28;20283;-75
2024/03/03 06:37:57;;;;;;;26.20;16.67;;;6.50;99.90;;;;;;5044389;28;20465;-77
2024/03/03 06:40:44;;;;;;;32.40;15.50;;;6.50;99.90;;;;;;5045165;28;20484;-77
2024/03/03 06:43:29;;;;;;;26.70;17.10;;;6.60;99.90;;;;;;5044177;28;20451;-77
2024/03/03 06:46:15;;;;;;;27.23;17.90;;;6.50;99.90;;;;;;5043714;28;20444;-74
2024/03/03 06:49:02;;;;;;;26.47;16.77;;;6.50;99.90;;;;;;5043351;28;20492;-76
2024/03/03 06:51:48;;;;;;;26.33;17.60;;;6.50;99.90;;;;;;5041847;28;20509;-77
2024/03/03 06:54:34;;;;;;;25.03;17.27;;;6.60;99.90;;;;;;5046226;28;21074;-76
2024/03/03 06:57:20;;;;;;;27.80;17.57;;;6.70;99.90;;;;;;5043463;28;20508;-74
2024/03/03 07:00:09;;;;;;;25.63;18.17;;;6.70;99.90;;;;;;5044343;28;20506;-77
2024/03/03 07:03:13;;;;;;;23.17;16.70;;;6.80;99.90;;;;;;5046958;28;20821;-77
2024/03/03 07:06:00;;;;;;;29.90;17.40;;;6.90;99.90;;;;;;5043499;28;21307;-77
2024/03/03 07:08:45;;;;;;;34.47;20.60;;;6.80;99.90;;;;;;5046330;28;20859;-77
2024/03/03 07:11:31;;;;;;;28.57;17.00;;;6.80;99.90;;;;;;5041904;28;20864;-77
2024/03/03 07:14:17;;;;;;;25.20;17.20;;;7.00;99.90;;;;;;5041676;28;21156;-77
2024/03/03 07:17:03;;;;;;;27.97;18.33;;;7.10;99.90;;;;;;5041751;28;20648;-76
2024/03/03 07:19:49;;;;;;;29.17;19.50;;;7.10;99.90;;;;;;5047344;28;20518;-74
2024/03/03 07:22:36;;;;;;;27.00;18.67;;;7.30;99.90;;;;;;5049556;28;20979;-77
2024/03/03 07:25:22;;;;;;;30.60;21.07;;;7.40;99.90;;;;;;5048134;28;20485;-77
2024/03/03 07:28:07;;;;;;;33.50;22.47;;;7.60;99.90;;;;;;5044739;28;20466;-77
2024/03/03 07:30:53;;;;;;;30.37;21.00;;;7.80;99.90;;;;;;5042426;28;20523;-75
2024/03/03 07:33:40;;;;;;;36.00;22.00;;;8.10;99.90;;;;;;5044860;28;20517;-76
2024/03/03 07:36:25;;;;;;;33.40;22.37;;;8.30;99.90;;;;;;5045716;28;20432;-77
2024/03/03 07:39:13;;;;;;;43.00;23.73;;;8.50;99.90;;;;;;5048062;28;20832;-77
2024/03/03 07:41:58;;;;;;;31.97;22.80;;;8.70;99.90;;;;;;5047591;28;20457;-74
2024/03/03 07:44:44;;;;;;;31.50;21.23;;;8.80;99.90;;;;;;5048680;28;20541;-77
2024/03/03 07:47:30;;;;;;;36.40;21.40;;;9.00;99.90;;;;;;5042945;28;20497;-76
2024/03/03 07:50:15;;;;;;;30.17;20.17;;;9.10;99.90;;;;;;5043844;28;20455;-77
2024/03/03 07:53:01;;;;;;;39.30;21.87;;;9.20;99.90;;;;;;5044395;28;20506;-77
2024/03/03 07:55:48;;;;;;;34.10;21.80;;;9.30;99.90;;;;;;5046396;28;20680;-75
2024/03/03 07:58:36;;;;;;;32.17;21.20;;;9.40;99.90;;;;;;5047170;28;20816;-75
2024/03/03 08:01:22;;;;;;;29.93;20.40;;;9.50;99.90;;;;;;5041948;28;20574;-76
2024/03/03 08:04:09;;;;;;;29.00;20.03;;;9.60;99.90;;;;;;5040745;28;20449;-77
2024/03/03 08:06:55;;;;;;;31.83;20.60;;;9.70;99.90;;;;;;5046590;28;20460;-76
2024/03/03 08:09:41;;;;;;;33.10;21.03;;;9.70;99.90;;;;;;5041630;28;20931;-77
2024/03/03 08:12:27;;;;;;;30.53;19.50;;;9.90;99.90;;;;;;5042006;28;20467;-75
2024/03/03 08:15:13;;;;;;;30.93;20.90;;;10.00;99.90;;;;;;5045866;28;20820;-77
2024/03/03 08:17:59;;;;;;;33.90;19.30;;;10.20;99.90;;;;;;5048576;28;20445;-77
2024/03/03 08:20:45;;;;;;;27.80;19.17;;;10.30;99.90;;;;;;5043684;28;20487;-77
2024/03/03 08:23:30;;;;;;;27.50;18.13;;;10.40;99.90;;;;;;5042203;28;20441;-75
2024/03/03 08:26:16;;;;;;;31.63;19.70;;;10.50;99.90;;;;;;5045252;28;20779;-78
2024/03/03 08:29:04;;;;;;;29.07;20.27;;;10.50;99.90;;;;;;5048469;28;20437;-77
2024/03/03 08:31:49;;;;;;;30.77;20.20;;;10.50;99.90;;;;;;5047343;28;20462;-77
2024/03/03 08:34:35;;;;;;;35.60;21.50;;;10.40;99.90;;;;;;5049946;28;21028;-74
2024/03/03 08:37:21;;;;;;;29.83;20.57;;;10.50;99.90;;;;;;5047425;28;21542;-77
2024/03/03 08:40:09;;;;;;;29.97;20.00;;;10.60;99.90;;;;;;5049399;28;20530;-77
2024/03/03 08:42:55;;;;;;;33.20;19.90;;;10.70;99.90;;;;;;5048016;28;20501;-77
2024/03/03 08:45:42;;;;;;;30.17;18.90;;;10.70;99.90;;;;;;5049756;28;20449;-77
2024/03/03 08:48:28;;;;;;;27.60;19.20;;;10.70;99.90;;;;;;5050877;28;20536;-77
2024/03/03 08:51:14;;;;;;;27.60;18.37;;;10.70;99.90;;;;;;5043157;28;20457;-77
2024/03/03 08:54:00;;;;;;;28.27;18.97;;;10.80;99.90;;;;;;5046794;28;20474;-77
2024/03/03 08:56:46;;;;;;;27.93;18.97;;;10.80;99.90;;;;;;5045565;28;20455;-77
2024/03/03 08:59:32;;;;;;;29.00;18.83;;;10.90;99.90;;;;;;5044172;28;20448;-76
2024/03/03 09:02:19;;;;;;;34.27;19.43;;;10.90;99.90;;;;;;5043541;28;20425;-76
2024/03/03 09:05:05;;;;;;;34.80;20.03;;;10.90;99.90;;;;;;5048465;28;20530;-77
2024/03/03 09:07:50;;;;;;;27.43;18.23;;;10.90;99.90;;;;;;5049237;28;20535;-77
2024/03/03 09:10:37;;;;;;;25.50;18.33;;;11.00;99.90;;;;;;5046874;28;20759;-76
2024/03/03 09:13:22;;;;;;;22.53;17.27;;;11.20;99.90;;;;;;5047466;28;20441;-77
2024/03/03 09:16:09;;;;;;;24.90;18.53;;;11.30;99.90;;;;;;5049727;28;20439;-76
2024/03/03 09:18:56;;;;;;;30.07;20.10;;;11.40;99.90;;;;;;5049426;28;20433;-77
2024/03/03 09:21:41;;;;;;;25.43;17.83;;;11.40;99.90;;;;;;5048197;28;20906;-77
2024/03/03 09:24:27;;;;;;;21.70;15.97;;;11.60;99.90;;;;;;5044035;28;20519;-76
2024/03/03 09:27:13;;;;;;;28.70;17.27;;;11.70;99.90;;;;;;5050739;28;20507;-77
2024/03/03 09:29:59;;;;;;;22.70;16.60;;;11.80;99.90;;;;;;5046055;28;20453;-75
2024/03/03 09:32:50;;;;;;;20.13;15.13;;;11.90;99.90;;;;;;5049870;28;20440;-75
2024/03/03 09:35:37;;;;;;;26.97;16.87;;;12.10;99.90;;;;;;5048452;28;20500;-75
2024/03/03 09:38:23;;;;;;;25.53;15.70;;;12.20;99.90;;;;;;5044573;28;20452;-77
2024/03/03 09:41:09;;;;;;;23.00;15.90;;;12.50;99.90;;;;;;5045294;28;20457;-76
2024/03/03 09:44:03;;;;;;;25.90;18.10;;;12.60;99.90;;;;;;5050113;28;22104;-75
2024/03/03 09:46:49;;;;;;;21.87;15.37;;;12.70;99.90;;;;;;5051841;28;20535;-75
2024/03/03 09:49:36;;;;;;;23.10;15.80;;;12.80;99.90;;;;;;5044708;28;20872;-75
2024/03/03 09:52:25;;;;;;;27.53;16.53;;;12.90;99.90;;;;;;5046067;28;20424;-77
2024/03/03 09:55:11;;;;;;;24.20;15.67;;;13.00;99.90;;;;;;5050496;28;20454;-77
2024/03/03 09:57:58;;;;;;;24.37;15.13;;;13.10;99.90;;;;;;5049018;28;20458;-77
2024/03/03 10:00:44;;;;;;;25.37;17.53;;;13.20;99.90;;;;;;5044846;28;21563;-74
2024/03/03 10:03:32;;;;;;;17.30;13.03;;;13.30;99.90;;;;;;5048117;28;20517;-77
2024/03/03 10:06:21;;;;;;;23.17;15.57;;;13.40;99.90;;;;;;5044756;28;20437;-77
2024/03/03 10:09:10;;;;;;;21.40;15.07;;;13.50;99.90;;;;;;5047864;28;20453;-76
2024/03/03 10:11:57;;;;;;;18.77;14.00;;;13.70;99.90;;;;;;5048292;28;20420;-75
2024/03/03 10:14:43;;;;;;;24.27;14.77;;;13.80;99.90;;;;;;5050703;28;20490;-77
2024/03/03 10:17:29;;;;;;;19.90;14.23;;;14.00;97.70;;;;;;5044947;28;20454;-76
2024/03/03 10:20:15;;;;;;;23.00;14.40;;;14.20;95.80;;;;;;5046333;28;20438;-75
2024/03/03 10:23:00;;;;;;;20.80;14.63;;;14.30;95.70;;;;;;5047180;28;20426;-77
2024/03/03 10:25:55;;;;;;;22.00;14.43;;;14.30;94.30;;;;;;5049250;28;20556;-77
2024/03/03 10:28:41;;;;;;;21.33;14.50;;;14.30;94.20;;;;;;5050520;28;20496;-77
2024/03/03 10:31:31;;;;;;;21.50;14.67;;;14.40;92.20;;;;;;5045804;28;20575;-76
2024/03/03 10:34:16;;;;;;;22.47;13.53;;;14.40;92.30;;;;;;5046155;28;20724;-76
2024/03/03 10:37:04;;;;;;;22.50;14.40;;;14.40;91.80;;;;;;5046549;28;21544;-76
2024/03/03 10:39:50;;;;;;;19.30;14.67;;;14.40;90.00;;;;;;5049628;28;20428;-77
2024/03/03 10:42:37;;;;;;;18.70;12.73;;;14.50;89.20;;;;;;5051000;28;20893;-77
2024/03/03 10:45:23;;;;;;;16.13;11.27;;;14.60;90.00;;;;;;5041499;28;20440;-77
2024/03/03 10:48:09;;;;;;;17.87;12.47;;;14.70;88.50;;;;;;5042198;28;20430;-76
2024/03/03 10:50:55;;;;;;;19.83;12.83;;;14.90;85.60;;;;;;5051526;28;20580;-77
2024/03/03 10:53:41;;;;;;;17.77;11.77;;;15.10;85.50;;;;;;5052221;28;20434;-76
2024/03/03 10:56:27;;;;;;;17.77;11.77;;;15.30;80.00;;;;;;5049860;28;20417;-74
2024/03/03 10:59:15;;;;;;;18.40;11.53;;;15.50;78.20;;;;;;5049493;28;20451;-77
2024/03/03 11:02:01;;;;;;;20.10;10.83;;;15.60;76.10;;;;;;5054118;28;20486;-76
2024/03/03 11:04:47;;;;;;;17.77;11.37;;;15.80;71.20;;;;;;5053017;28;20546;-77
2024/03/03 11:07:36;;;;;;;15.83;10.40;;;15.90;66.90;;;;;;5045328;28;20572;-77
2024/03/03 11:10:21;;;;;;;17.90;11.57;;;16.10;67.80;;;;;;5054578;28;21060;-75
2024/03/03 11:13:07;;;;;;;16.80;12.00;;;16.30;60.50;;;;;;5045790;28;20451;-77
2024/03/03 11:16:00;;;;;;;13.70;10.07;;;16.40;56.60;;;;;;5044469;28;20822;-73
2024/03/03 11:18:50;;;;;;;15.23;10.30;;;16.50;58.00;;;;;;5050348;28;20450;-77
2024/03/03 11:21:38;;;;;;;15.37;10.10;;;16.60;59.40;;;;;;5045549;28;20509;-75
2024/03/03 11:24:30;;;;;;;15.77;10.23;;;16.40;53.00;;;;;;5044436;28;20986;-75
2024/03/03 11:27:18;;;;;;;19.83;11.67;;;16.40;52.50;;;;;;5041446;28;20452;-73
2024/03/03 11:30:05;;;;;;;15.07;10.10;;;16.50;53.60;;;;;;5052102;28;20467;-77
2024/03/03 11:32:53;;;;;;;14.70;10.50;;;16.60;53.50;;;;;;5055400;28;20437;-76
2024/03/03 11:35:39;;;;;;;20.33;9.23;;;16.70;57.70;;;;;;5056205;28;20483;-77
2024/03/03 11:38:36;;;;;;;15.57;9.67;;;16.90;60.20;;;;;;5053782;28;20490;-73
2024/03/03 11:41:22;;;;;;;17.00;9.37;;;17.10;54.10;;;;;;5052170;28;20495;-75
2024/03/03 11:44:45;;;;;;;10.77;9.30;;;17.20;47.80;;;;;;5050558;28;20561;-74
2024/03/03 11:47:33;;;;;;;12.80;9.30;;;17.20;45.90;;;;;;5047983;28;20439;-75
2024/03/03 11:50:22;;;;;;;14.53;9.43;;;17.10;47.80;;;;;;5044581;28;20461;-76
2024/03/03 11:53:09;;;;;;;17.43;9.63;;;17.00;48.70;;;;;;5042866;28;20428;-76
2024/03/03 11:55:56;;;;;;;12.27;8.60;;;17.10;47.40;;;;;;5046896;28;20966;-76
2024/03/03 11:58:43;;;;;;;11.60;8.27;;;17.10;47.00;;;;;;5049295;28;20482;-75
2024/03/03 12:01:30;;;;;;;11.00;7.17;;;17.30;48.40;;;;;;5049835;28;20567;-75
2024/03/03 12:04:16;;;;;;;9.33;6.00;;;17.40;48.10;;;;;;5047494;28;20618;-76
2024/03/03 12:07:06;;;;;;;8.20;6.70;;;17.40;36.80;;;;;;5050249;28;20411;-75
2024/03/03 12:09:52;;;;;;;11.30;6.97;;;17.40;36.80;;;;;;5045663;28;20459;-75
2024/03/03 12:12:39;;;;;;;10.00;6.53;;;17.40;33.30;;;;;;5044549;28;20527;-75
2024/03/03 12:15:26;;;;;;;8.20;6.13;;;17.50;33.70;;;;;;5050675;28;20428;-75
2024/03/03 12:18:12;;;;;;;9.47;5.57;;;17.70;31.60;;;;;;5047789;28;20450;-75
2024/03/03 12:20:59;;;;;;;8.37;6.23;;;17.70;27.60;;;;;;5053740;28;21049;-75
2024/03/03 12:23:46;;;;;;;8.40;6.53;;;17.80;28.10;;;;;;5053847;28;20933;-74
2024/03/03 12:26:32;;;;;;;10.43;6.27;;;17.90;27.40;;;;;;5050475;28;20432;-75
2024/03/03 12:29:18;;;;;;;8.80;5.40;;;17.80;26.90;;;;;;5051135;28;20467;-74
2024/03/03 12:32:05;;;;;;;8.90;5.37;;;17.80;27.60;;;;;;5050636;28;20501;-75
2024/03/03 12:34:50;;;;;;;7.53;5.50;;;18.10;28.10;;;;;;5051354;28;20448;-74
2024/03/03 12:37:36;;;;;;;7.83;5.67;;;18.30;27.10;;;;;;5050779;28;20440;-75
2024/03/03 12:40:25;;;;;;;9.53;6.13;;;18.40;25.40;;;;;;5047419;28;20426;-74
2024/03/03 12:43:14;;;;;;;7.83;5.40;;;18.40;24.10;;;;;;5050180;28;21225;-75
2024/03/03 12:46:01;;;;;;;9.47;5.10;;;18.50;26.40;;;;;;5054211;28;20472;-75
2024/03/03 12:48:46;;;;;;;7.70;5.23;;;18.70;25.30;;;;;;5047766;28;20428;-75
2024/03/03 12:51:32;;;;;;;6.83;4.60;;;18.90;21.90;;;;;;5051417;28;20449;-77
2024/03/03 12:54:18;;;;;;;8.97;5.27;;;18.80;19.40;;;;;;5051218;28;20560;-76
2024/03/03 12:57:05;;;;;;;8.20;5.43;;;19.00;19.60;;;;;;5041893;28;20923;-77
2024/03/03 12:59:51;;;;;;;8.80;5.30;;;19.20;21.90;;;;;;5042732;28;21150;-76
2024/03/03 13:02:36;;;;;;;10.43;4.80;;;19.40;18.30;;;;;;5040059;28;20838;-76
2024/03/03 13:05:23;;;;;;;6.93;4.87;;;19.30;17.60;;;;;;5036354;28;20490;-76
2024/03/03 13:08:12;;;;;;;7.70;5.40;;;19.30;17.40;;;;;;5040786;28;20457;-76
2024/03/03 13:10:58;;;;;;;6.50;4.63;;;19.40;18.80;;;;;;5043532;28;20428;-76
2024/03/03 13:13:45;;;;;;;6.67;4.33;;;19.50;18.40;;;;;;5050538;28;20521;-76
2024/03/03 13:16:31;;;;;;;7.43;4.73;;;19.60;17.90;;;;;;5055235;28;20436;-75
2024/03/03 13:19:17;;;;;;;7.90;5.57;;;19.70;17.90;;;;;;5053916;28;20408;-75
2024/03/03 13:22:03;;;;;;;6.30;4.70;;;19.90;18.50;;;;;;5051731;28;20456;-75
2024/03/03 13:24:57;;;;;;;6.60;5.17;;;20.10;19.50;;;;;;5052730;28;20458;-75
2024/03/03 13:27:42;;;;;;;9.33;4.80;;;20.00;18.50;;;;;;5051635;28;20955;-75
2024/03/03 13:30:30;;;;;;;7.47;4.70;;;20.20;17.90;;;;;;5050424;28;20430;-75
2024/03/03 13:33:15;;;;;;;6.87;5.27;;;20.40;18.70;;;;;;5047669;28;20438;-75
2024/03/03 13:36:02;;;;;;;6.83;5.17;;;20.60;16.80;;;;;;5048438;28;20446;-75
2024/03/03 13:38:48;;;;;;;6.53;4.83;;;20.70;16.30;;;;;;5047361;28;20438;-75
2024/03/03 13:41:33;;;;;;;6.37;5.07;;;20.70;16.30;;;;;;5050898;28;20556;-75
2024/03/03 13:44:19;;;;;;;9.10;5.03;;;20.90;15.70;;;;;;5047913;28;20466;-75
2024/03/03 13:47:06;;;;;;;8.10;5.10;;;20.90;15.70;;;;;;5045685;28;20492;-75
2024/03/03 13:49:52;;;;;;;5.93;3.93;;;20.90;15.20;;;;;;5049877;28;20796;-75
2024/03/03 13:52:38;;;;;;;5.93;4.70;;;20.90;15.70;;;;;;5048532;28;20430;-75
2024/03/03 13:55:23;;;;;;;6.10;4.90;;;20.70;14.50;;;;;;5050265;28;20934;-75
2024/03/03 13:58:10;;;;;;;6.60;4.70;;;20.50;15.30;;;;;;5049161;28;20836;-75
2024/03/03 14:01:00;;;;;;;9.70;5.60;;;20.30;15.20;;;;;;5046605;28;20527;-75
2024/03/03 14:03:47;;;;;;;6.83;5.40;;;20.30;15.20;;;;;;5047276;28;20431;-75
2024/03/03 14:06:32;;;;;;;6.70;5.03;;;20.20;15.10;;;;;;5049276;28;20538;-76
2024/03/03 14:09:18;;;;;;;5.90;4.57;;;20.20;15.70;;;;;;5047448;28;20434;-76
2024/03/03 14:12:06;;;;;;;6.07;4.87;;;20.30;16.10;;;;;;5049783;28;20423;-75
2024/03/03 14:14:51;;;;;;;7.37;5.00;;;20.30;15.20;;;;;;5049820;28;20450;-76